createdAt,value
2024-05-09T00:00:48.531Z,1013.48
2024-05-09T00:01:48.435Z,1013.48
2024-05-09T00:02:48.410Z,1013.48
2024-05-09T00:03:48.475Z,1013.48
2024-05-09T00:04:48.430Z,1013.48
2024-05-09T00:05:48.409Z,1013.48
2024-05-09T00:06:48.343Z,1013.47
2024-05-09T00:07:48.413Z,1013.47
2024-05-09T00:08:48.350Z,1013.48
2024-05-09T00:09:48.296Z,1013.48
2024-05-09T00:10:48.398Z,1013.47
2024-05-09T00:11:48.390Z,1013.47
2024-05-09T00:12:48.278Z,1013.46
2024-05-09T00:13:48.295Z,1013.46
2024-05-09T00:14:48.287Z,1013.46
2024-05-09T00:15:48.240Z,1013.47
2024-05-09T00:16:48.256Z,1013.47
2024-05-09T00:17:48.380Z,1013.47
2024-05-09T00:18:48.323Z,1013.46
2024-05-09T00:19:48.287Z,1013.45
2024-05-09T00:20:48.316Z,1013.43
2024-05-09T00:21:48.171Z,1013.42
2024-05-09T00:22:48.276Z,1013.41
2024-05-09T00:23:48.165Z,1013.40
2024-05-09T00:24:48.154Z,1013.39
2024-05-09T00:25:48.211Z,1013.39
2024-05-09T00:26:48.140Z,1013.39
2024-05-09T00:27:48.123Z,1013.38
2024-05-09T00:28:48.216Z,1013.39
2024-05-09T00:29:48.136Z,1013.39
2024-05-09T00:30:48.136Z,1013.40
2024-05-09T00:31:48.185Z,1013.41
2024-05-09T00:32:48.249Z,1013.40
2024-05-09T00:33:48.220Z,1013.42
2024-05-09T00:34:48.075Z,1013.43
2024-05-09T00:35:48.066Z,1013.44
2024-05-09T00:36:48.064Z,1013.46
2024-05-09T00:37:48.065Z,1013.45
2024-05-09T00:38:48.030Z,1013.46
2024-05-09T00:39:47.997Z,1013.46
2024-05-09T00:40:48.093Z,1013.44
2024-05-09T00:41:48.035Z,1013.43
2024-05-09T00:42:47.973Z,1013.44
2024-05-09T00:43:48.033Z,1013.43
2024-05-09T00:44:47.962Z,1013.41
2024-05-09T00:45:47.946Z,1013.40
2024-05-09T00:46:48.006Z,1013.39
2024-05-09T00:47:48.151Z,1013.39
2024-05-09T00:48:48.086Z,1013.40
2024-05-09T00:49:48.008Z,1013.39
2024-05-09T00:50:48.022Z,1013.39
2024-05-09T00:51:47.896Z,1013.39
2024-05-09T00:52:47.921Z,1013.40
2024-05-09T00:53:47.938Z,1013.40
2024-05-09T00:54:47.948Z,1013.40
2024-05-09T00:55:47.996Z,1013.41
2024-05-09T00:56:47.856Z,1013.41
2024-05-09T00:57:47.849Z,1013.41
2024-05-09T00:58:47.883Z,1013.40
2024-05-09T00:59:47.802Z,1013.40
2024-05-09T01:00:47.923Z,1013.40
2024-05-09T01:01:48.374Z,1013.39
2024-05-09T01:02:47.889Z,1013.39
2024-05-09T01:03:51.021Z,1013.38
2024-05-09T01:04:47.880Z,1013.37
2024-05-09T01:05:47.803Z,1013.36
2024-05-09T01:06:47.771Z,1013.35
2024-05-09T01:07:47.762Z,1013.34
2024-05-09T01:08:47.724Z,1013.33
2024-05-09T01:09:47.761Z,1013.32
2024-05-09T01:10:48.678Z,1013.31
2024-05-09T01:11:47.883Z,1013.31
2024-05-09T01:12:47.698Z,1013.31
2024-05-09T01:13:47.709Z,1013.31
2024-05-09T01:14:47.681Z,1013.31
2024-05-09T01:15:47.657Z,1013.32
2024-05-09T01:16:47.761Z,1013.31
2024-05-09T01:17:47.909Z,1013.31
2024-05-09T01:18:47.722Z,1013.30
2024-05-09T01:19:47.787Z,1013.31
2024-05-09T01:20:47.606Z,1013.31
2024-05-09T01:21:48.146Z,1013.31
2024-05-09T01:22:47.620Z,1013.32
2024-05-09T01:23:47.574Z,1013.32
2024-05-09T01:24:47.577Z,1013.33
2024-05-09T01:25:47.614Z,1013.33
2024-05-09T01:26:47.564Z,1013.33
2024-05-09T01:27:47.546Z,1013.32
2024-05-09T01:28:47.560Z,1013.33
2024-05-09T01:29:47.510Z,1013.33
2024-05-09T01:30:47.515Z,1013.34
2024-05-09T01:31:47.635Z,1013.35
2024-05-09T01:32:47.660Z,1013.36
2024-05-09T01:33:47.667Z,1013.36
2024-05-09T01:34:47.529Z,1013.36
2024-05-09T01:35:47.448Z,1013.36
2024-05-09T01:36:47.455Z,1013.36
2024-05-09T01:37:47.627Z,1013.38
2024-05-09T01:38:47.440Z,1013.39
2024-05-09T01:39:47.442Z,1013.41
2024-05-09T01:40:47.499Z,1013.43
2024-05-09T01:41:47.414Z,1013.45
2024-05-09T01:42:47.461Z,1013.46
2024-05-09T01:43:47.453Z,1013.47
2024-05-09T01:44:47.407Z,1013.47
2024-05-09T01:45:47.378Z,1013.47
2024-05-09T01:46:47.428Z,1013.47
2024-05-09T01:47:47.399Z,1013.47
2024-05-09T01:48:47.477Z,1013.47
2024-05-09T01:49:47.346Z,1013.47
2024-05-09T01:50:47.508Z,1013.48
2024-05-09T01:51:47.312Z,1013.48
2024-05-09T01:52:47.398Z,1013.48
2024-05-09T01:53:47.288Z,1013.48
2024-05-09T01:54:47.286Z,1013.48
2024-05-09T01:55:47.286Z,1013.48
2024-05-09T01:56:47.249Z,1013.48
2024-05-09T01:57:47.238Z,1013.48
2024-05-09T01:58:47.304Z,1013.48
2024-05-09T01:59:47.265Z,1013.48
2024-05-09T02:00:47.330Z,1013.48
2024-05-09T02:01:56.554Z,1013.49
2024-05-09T02:02:47.439Z,1013.49
2024-05-09T02:03:47.382Z,1013.49
2024-05-09T02:04:47.289Z,1013.49
2024-05-09T02:05:47.994Z,1013.48
2024-05-09T02:06:47.146Z,1013.47
2024-05-09T02:07:47.192Z,1013.46
2024-05-09T02:08:47.160Z,1013.45
2024-05-09T02:09:47.222Z,1013.44
2024-05-09T02:10:47.822Z,1013.43
2024-05-09T02:11:47.190Z,1013.42
2024-05-09T02:12:47.081Z,1013.40
2024-05-09T02:13:47.119Z,1013.38
2024-05-09T02:14:47.096Z,1013.36
2024-05-09T02:15:47.083Z,1013.34
2024-05-09T02:16:47.098Z,1013.34
2024-05-09T02:17:47.248Z,1013.33
2024-05-09T02:18:47.194Z,1013.33
2024-05-09T02:19:47.099Z,1013.34
2024-05-09T02:20:47.079Z,1013.34
2024-05-09T02:21:47.024Z,1013.34
2024-05-09T02:22:47.013Z,1013.34
2024-05-09T02:23:47.002Z,1013.35
2024-05-09T02:24:47.003Z,1013.35
2024-05-09T02:25:47.030Z,1013.36
2024-05-09T02:26:46.983Z,1013.36
2024-05-09T02:27:46.938Z,1013.38
2024-05-09T02:28:47.106Z,1013.39
2024-05-09T02:29:46.941Z,1013.40
2024-05-09T02:30:46.940Z,1013.41
2024-05-09T02:31:46.988Z,1013.42
2024-05-09T02:32:47.120Z,1013.43
2024-05-09T02:33:47.222Z,1013.44
2024-05-09T02:34:46.948Z,1013.46
2024-05-09T02:35:46.870Z,1013.47
2024-05-09T02:36:46.845Z,1013.48
2024-05-09T02:37:46.882Z,1013.48
2024-05-09T02:38:46.828Z,1013.47
2024-05-09T02:39:46.873Z,1013.46
2024-05-09T02:40:46.890Z,1013.44
2024-05-09T02:41:46.817Z,1013.43
2024-05-09T02:42:46.792Z,1013.42
2024-05-09T02:43:46.822Z,1013.42
2024-05-09T02:44:46.801Z,1013.41
2024-05-09T02:45:46.782Z,1013.41
2024-05-09T02:46:46.793Z,1013.41
2024-05-09T02:47:46.892Z,1013.41
2024-05-09T02:48:46.840Z,1013.41
2024-05-09T02:49:46.808Z,1013.42
2024-05-09T02:50:46.937Z,1013.43
2024-05-09T02:51:46.709Z,1013.43
2024-05-09T02:52:46.751Z,1013.44
2024-05-09T02:53:46.759Z,1013.44
2024-05-09T02:54:46.682Z,1013.45
2024-05-09T02:55:46.812Z,1013.44
2024-05-09T02:56:46.689Z,1013.44
2024-05-09T02:57:46.644Z,1013.43
2024-05-09T02:58:46.698Z,1013.42
2024-05-09T02:59:46.648Z,1013.41
2024-05-09T03:00:46.697Z,1013.39
2024-05-09T03:01:46.794Z,1013.38
2024-05-09T03:02:46.661Z,1013.37
2024-05-09T03:03:46.714Z,1013.36
2024-05-09T03:04:46.722Z,1013.36
2024-05-09T03:05:47.079Z,1013.36
2024-05-09T03:06:46.588Z,1013.35
2024-05-09T03:07:46.604Z,1013.36
2024-05-09T03:08:46.608Z,1013.37
2024-05-09T03:09:47.173Z,1013.38
2024-05-09T03:10:46.544Z,1013.40
2024-05-09T03:11:46.697Z,1013.41
2024-05-09T03:12:46.540Z,1013.42
2024-05-09T03:13:46.511Z,1013.41
2024-05-09T03:14:46.493Z,1013.40
2024-05-09T03:15:46.501Z,1013.40
2024-05-09T03:16:46.506Z,1013.39
2024-05-09T03:17:46.653Z,1013.39
2024-05-09T03:18:46.523Z,1013.38
2024-05-09T03:19:46.466Z,1013.36
2024-05-09T03:20:46.461Z,1013.35
2024-05-09T03:21:46.410Z,1013.33
2024-05-09T03:22:46.481Z,1013.33
2024-05-09T03:23:46.496Z,1013.33
2024-05-09T03:24:46.381Z,1013.34
2024-05-09T03:25:46.405Z,1013.34
2024-05-09T03:26:46.361Z,1013.34
2024-05-09T03:27:46.365Z,1013.34
2024-05-09T03:28:46.382Z,1013.34
2024-05-09T03:29:46.363Z,1013.34
2024-05-09T03:30:46.322Z,1013.33
2024-05-09T03:31:46.381Z,1013.34
2024-05-09T03:32:46.513Z,1013.34
2024-05-09T03:33:46.427Z,1013.34
2024-05-09T03:34:46.312Z,1013.34
2024-05-09T03:35:46.494Z,1013.34
2024-05-09T03:36:46.381Z,1013.34
2024-05-09T03:37:46.280Z,1013.33
2024-05-09T03:38:46.394Z,1013.32
2024-05-09T03:39:46.242Z,1013.32
2024-05-09T03:40:46.424Z,1013.30
2024-05-09T03:41:46.210Z,1013.28
2024-05-09T03:42:46.192Z,1013.26
2024-05-09T03:43:46.228Z,1013.25
2024-05-09T03:44:46.200Z,1013.25
2024-05-09T03:45:46.179Z,1013.25
2024-05-09T03:46:46.194Z,1013.26
2024-05-09T03:47:46.561Z,1013.28
2024-05-09T03:48:46.330Z,1013.29
2024-05-09T03:49:46.192Z,1013.29
2024-05-09T03:50:46.191Z,1013.29
2024-05-09T03:51:46.127Z,1013.28
2024-05-09T03:52:46.133Z,1013.28
2024-05-09T03:53:46.165Z,1013.27
2024-05-09T03:54:46.119Z,1013.27
2024-05-09T03:55:46.111Z,1013.26
2024-05-09T03:56:46.126Z,1013.26
2024-05-09T03:57:46.121Z,1013.25
2024-05-09T03:58:46.093Z,1013.24
2024-05-09T03:59:46.033Z,1013.22
2024-05-09T04:00:46.426Z,1013.21
2024-05-09T04:01:46.205Z,1013.20
2024-05-09T04:02:46.080Z,1013.19
2024-05-09T04:03:46.313Z,1013.20
2024-05-09T04:04:46.080Z,1013.21
2024-05-09T04:05:46.323Z,1013.23
2024-05-09T04:06:45.986Z,1013.25
2024-05-09T04:07:46.016Z,1013.27
2024-05-09T04:08:46.004Z,1013.29
2024-05-09T04:09:45.934Z,1013.31
2024-05-09T04:10:46.100Z,1013.32
2024-05-09T04:11:46.037Z,1013.34
2024-05-09T04:12:45.909Z,1013.34
2024-05-09T04:13:45.929Z,1013.34
2024-05-09T04:14:45.896Z,1013.33
2024-05-09T04:15:45.881Z,1013.33
2024-05-09T04:16:45.913Z,1013.33
2024-05-09T04:17:46.031Z,1013.33
2024-05-09T04:18:46.082Z,1013.34
2024-05-09T04:19:45.878Z,1013.34
2024-05-09T04:20:45.870Z,1013.34
2024-05-09T04:21:45.827Z,1013.35
2024-05-09T04:22:45.839Z,1013.37
2024-05-09T04:23:45.880Z,1013.39
2024-05-09T04:24:45.783Z,1013.40
2024-05-09T04:25:46.039Z,1013.42
2024-05-09T04:26:45.793Z,1013.42
2024-05-09T04:27:45.764Z,1013.44
2024-05-09T04:28:45.787Z,1013.46
2024-05-09T04:29:45.772Z,1013.47
2024-05-09T04:30:45.723Z,1013.48
2024-05-09T04:31:45.796Z,1013.49
2024-05-09T04:32:45.871Z,1013.48
2024-05-09T04:33:45.812Z,1013.47
2024-05-09T04:34:45.737Z,1013.47
2024-05-09T04:35:45.805Z,1013.46
2024-05-09T04:36:45.676Z,1013.46
2024-05-09T04:37:45.718Z,1013.45
2024-05-09T04:38:45.664Z,1013.44
2024-05-09T04:39:45.638Z,1013.44
2024-05-09T04:40:45.686Z,1013.44
2024-05-09T04:41:45.641Z,1013.44
2024-05-09T04:42:45.673Z,1013.45
2024-05-09T04:43:45.656Z,1013.47
2024-05-09T04:44:45.589Z,1013.47
2024-05-09T04:45:45.618Z,1013.48
2024-05-09T04:46:45.622Z,1013.47
2024-05-09T04:47:45.697Z,1013.47
2024-05-09T04:48:45.815Z,1013.47
2024-05-09T04:49:45.612Z,1013.47
2024-05-09T04:50:45.650Z,1013.47
2024-05-09T04:51:45.764Z,1013.47
2024-05-09T04:52:45.522Z,1013.49
2024-05-09T04:53:45.597Z,1013.51
2024-05-09T04:54:45.492Z,1013.52
2024-05-09T04:55:45.662Z,1013.52
2024-05-09T04:56:45.532Z,1013.52
2024-05-09T04:57:45.466Z,1013.52
2024-05-09T04:58:45.516Z,1013.51
2024-05-09T04:59:45.458Z,1013.50
2024-05-09T05:00:45.574Z,1013.49
2024-05-09T05:01:45.498Z,1013.49
2024-05-09T05:02:46.036Z,1013.50
2024-05-09T05:03:45.509Z,1013.52
2024-05-09T05:04:45.695Z,1013.54
2024-05-09T05:05:46.165Z,1013.56
2024-05-09T05:06:45.384Z,1013.58
2024-05-09T05:07:45.388Z,1013.60
2024-05-09T05:08:45.434Z,1013.62
2024-05-09T05:09:45.438Z,1013.63
2024-05-09T05:10:45.840Z,1013.63
2024-05-09T05:11:45.408Z,1013.64
2024-05-09T05:12:45.315Z,1013.64
2024-05-09T05:13:45.353Z,1013.64
2024-05-09T05:14:45.320Z,1013.65
2024-05-09T05:15:45.278Z,1013.66
2024-05-09T05:16:45.320Z,1013.67
2024-05-09T05:17:45.404Z,1013.68
2024-05-09T05:18:45.298Z,1013.68
2024-05-09T05:19:45.386Z,1013.68
2024-05-09T05:20:59.811Z,1013.67
2024-05-09T05:21:45.231Z,1013.67
2024-05-09T05:22:45.246Z,1013.67
2024-05-09T05:23:45.261Z,1013.67
2024-05-09T05:24:45.199Z,1013.68
2024-05-09T05:25:45.243Z,1013.68
2024-05-09T05:26:45.207Z,1013.68
2024-05-09T05:27:45.153Z,1013.68
2024-05-09T05:28:45.251Z,1013.68
2024-05-09T05:29:45.189Z,1013.68
2024-05-09T05:30:45.820Z,1013.68
2024-05-09T05:31:45.245Z,1013.68
2024-05-09T05:32:45.187Z,1013.68
2024-05-09T05:33:45.209Z,1013.67
2024-05-09T05:34:45.120Z,1013.66
2024-05-09T05:35:45.152Z,1013.66
2024-05-09T05:36:45.103Z,1013.65
2024-05-09T05:37:45.095Z,1013.65
2024-05-09T05:38:45.264Z,1013.65
2024-05-09T05:39:45.044Z,1013.65
2024-05-09T05:40:45.102Z,1013.65
2024-05-09T05:41:45.044Z,1013.65
2024-05-09T05:42:45.017Z,1013.66
2024-05-09T05:43:45.045Z,1013.66
2024-05-09T05:44:45.012Z,1013.68
2024-05-09T05:45:44.979Z,1013.70
2024-05-09T05:46:45.021Z,1013.71
2024-05-09T05:47:45.290Z,1013.72
2024-05-09T05:48:45.091Z,1013.72
2024-05-09T05:49:45.015Z,1013.73
2024-05-09T05:50:45.067Z,1013.75
2024-05-09T05:51:44.933Z,1013.77
2024-05-09T05:52:44.960Z,1013.78
2024-05-09T05:53:44.980Z,1013.79
2024-05-09T05:54:44.901Z,1013.80
2024-05-09T05:55:44.967Z,1013.81
2024-05-09T05:56:44.945Z,1013.82
2024-05-09T05:57:44.898Z,1013.83
2024-05-09T05:58:45.127Z,1013.83
2024-05-09T05:59:44.851Z,1013.82
2024-05-09T06:00:45.058Z,1013.82
2024-05-09T06:01:44.832Z,1013.82
2024-05-09T06:02:45.051Z,1013.82
2024-05-09T06:03:45.023Z,1013.82
2024-05-09T06:04:44.879Z,1013.81
2024-05-09T06:05:44.912Z,1013.81
2024-05-09T06:06:44.805Z,1013.81
2024-05-09T06:07:44.816Z,1013.80
2024-05-09T06:08:45.002Z,1013.80
2024-05-09T06:09:47.419Z,1013.80
2024-05-09T06:10:44.935Z,1013.80
2024-05-09T06:11:44.778Z,1013.81
2024-05-09T06:12:44.713Z,1013.83
2024-05-09T06:13:44.804Z,1013.84
2024-05-09T06:14:44.697Z,1013.85
2024-05-09T06:15:44.694Z,1013.85
2024-05-09T06:16:44.707Z,1013.85
2024-05-09T06:17:45.031Z,1013.84
2024-05-09T06:18:44.829Z,1013.85
2024-05-09T06:19:44.849Z,1013.84
2024-05-09T06:20:44.755Z,1013.83
2024-05-09T06:21:44.635Z,1013.83
2024-05-09T06:22:44.670Z,1013.82
2024-05-09T06:23:44.707Z,1013.81
2024-05-09T06:24:44.621Z,1013.81
2024-05-09T06:25:44.783Z,1013.80
2024-05-09T06:26:44.660Z,1013.80
2024-05-09T06:27:44.571Z,1013.82
2024-05-09T06:28:44.603Z,1013.82
2024-05-09T06:29:44.577Z,1013.84
2024-05-09T06:30:44.550Z,1013.84
2024-05-09T06:31:44.568Z,1013.84
2024-05-09T06:32:44.671Z,1013.84
2024-05-09T06:33:44.624Z,1013.83
2024-05-09T06:34:44.696Z,1013.82
2024-05-09T06:35:45.035Z,1013.81
2024-05-09T06:36:44.468Z,1013.80
2024-05-09T06:37:44.515Z,1013.80
2024-05-09T06:38:44.518Z,1013.80
2024-05-09T06:39:44.443Z,1013.79
2024-05-09T06:40:44.913Z,1013.79
2024-05-09T06:41:44.497Z,1013.79
2024-05-09T06:42:44.431Z,1013.79
2024-05-09T06:43:44.596Z,1013.78
2024-05-09T06:44:44.448Z,1013.78
2024-05-09T06:45:44.434Z,1013.77
2024-05-09T06:46:44.427Z,1013.76
2024-05-09T06:47:44.521Z,1013.75
2024-05-09T06:48:44.734Z,1013.75
2024-05-09T06:49:44.447Z,1013.75
2024-05-09T06:50:44.445Z,1013.75
2024-05-09T06:51:44.338Z,1013.73
2024-05-09T06:52:44.517Z,1013.72
2024-05-09T06:53:44.317Z,1013.70
2024-05-09T06:54:44.305Z,1013.70
2024-05-09T06:55:44.326Z,1013.69
2024-05-09T06:56:44.374Z,1013.68
2024-05-09T06:57:44.278Z,1013.68
2024-05-09T06:58:44.290Z,1013.68
2024-05-09T06:59:44.328Z,1013.69
2024-05-09T07:00:44.315Z,1013.69
2024-05-09T07:01:44.242Z,1013.69
2024-05-09T07:02:44.467Z,1013.69
2024-05-09T07:03:44.328Z,1013.70
2024-05-09T07:04:44.238Z,1013.71
2024-05-09T07:05:45.239Z,1013.71
2024-05-09T07:06:44.216Z,1013.72
2024-05-09T07:07:44.197Z,1013.72
2024-05-09T07:08:44.216Z,1013.73
2024-05-09T07:09:44.186Z,1013.74
2024-05-09T07:10:44.394Z,1013.75
2024-05-09T07:11:44.228Z,1013.75
2024-05-09T07:12:44.139Z,1013.74
2024-05-09T07:13:44.211Z,1013.73
2024-05-09T07:14:44.163Z,1013.74
2024-05-09T07:15:44.118Z,1013.74
2024-05-09T07:16:44.122Z,1013.75
2024-05-09T07:17:44.274Z,1013.75
2024-05-09T07:18:44.191Z,1013.75
2024-05-09T07:19:44.077Z,1013.74
2024-05-09T07:20:44.113Z,1013.74
2024-05-09T07:21:44.049Z,1013.74
2024-05-09T07:22:44.042Z,1013.75
2024-05-09T07:23:46.850Z,1013.75
2024-05-09T07:24:44.034Z,1013.75
2024-05-09T07:25:44.059Z,1013.75
2024-05-09T07:26:44.123Z,1013.76
2024-05-09T07:27:44.004Z,1013.76
2024-05-09T07:28:44.045Z,1013.75
2024-05-09T07:29:44.042Z,1013.76
2024-05-09T07:30:44.004Z,1013.75
2024-05-09T07:31:43.948Z,1013.74
2024-05-09T07:32:44.161Z,1013.73
2024-05-09T07:33:44.029Z,1013.73
2024-05-09T07:34:43.944Z,1013.73
2024-05-09T07:35:44.002Z,1013.74
2024-05-09T07:36:43.908Z,1013.74
2024-05-09T07:37:43.922Z,1013.75
2024-05-09T07:38:44.120Z,1013.76
2024-05-09T07:39:43.986Z,1013.76
2024-05-09T07:40:43.913Z,1013.76
2024-05-09T07:41:43.949Z,1013.76
2024-05-09T07:42:43.863Z,1013.76
2024-05-09T07:43:43.868Z,1013.76
2024-05-09T07:44:43.946Z,1013.75
2024-05-09T07:45:51.477Z,1013.73
2024-05-09T07:51:32.044Z,1013.67
2024-05-09T07:53:37.302Z,1013.65
2024-05-09T07:53:51.381Z,1013.62
2024-05-09T07:54:23.878Z,1013.61
2024-05-09T07:55:23.819Z,1013.60
2024-05-09T07:56:24.564Z,1013.60
2024-05-09T07:57:23.725Z,1013.60
2024-05-09T07:58:23.663Z,1013.61
2024-05-09T07:59:23.811Z,1013.60
2024-05-09T08:00:29.605Z,1013.61
2024-05-09T08:01:24.647Z,1013.62
2024-05-09T08:02:23.817Z,1013.63
2024-05-09T08:03:23.989Z,1013.62
2024-05-09T08:04:26.461Z,1013.62
2024-05-09T08:05:23.738Z,1013.61
2024-05-09T08:06:23.612Z,1013.61
2024-05-09T08:07:23.643Z,1013.60
2024-05-09T08:08:23.606Z,1013.58
2024-05-09T08:09:23.572Z,1013.57
2024-05-09T08:10:28.534Z,1013.55
2024-05-09T08:11:23.628Z,1013.54
2024-05-09T08:12:23.532Z,1013.54
2024-05-09T08:13:23.636Z,1013.53
2024-05-09T08:14:23.543Z,1013.53
2024-05-09T08:15:23.581Z,1013.53
2024-05-09T08:16:23.834Z,1013.52
2024-05-09T08:17:23.631Z,1013.54
2024-05-09T08:18:23.591Z,1013.54
2024-05-09T08:19:23.577Z,1013.54
2024-05-09T08:20:30.929Z,1013.55
2024-05-09T08:21:23.492Z,1013.55
2024-05-09T08:22:23.605Z,1013.55
2024-05-09T08:23:23.483Z,1013.56
2024-05-09T08:24:23.458Z,1013.55
2024-05-09T08:25:23.458Z,1013.57
2024-05-09T08:26:23.469Z,1013.58
2024-05-09T08:27:23.438Z,1013.57
2024-05-09T08:28:23.490Z,1013.58
2024-05-09T08:29:23.405Z,1013.56
2024-05-09T08:30:30.100Z,1013.55
2024-05-09T08:31:23.521Z,1013.55
2024-05-09T08:32:23.502Z,1013.54
2024-05-09T08:33:23.510Z,1013.54
2024-05-09T08:34:23.453Z,1013.54
2024-05-09T08:35:23.389Z,1013.55
2024-05-09T08:36:23.471Z,1013.55
2024-05-09T08:37:26.211Z,1013.55
2024-05-09T08:38:23.342Z,1013.54
2024-05-09T08:39:23.314Z,1013.54
2024-05-09T08:40:30.745Z,1013.52
2024-05-09T08:41:23.354Z,1013.52
2024-05-09T08:42:23.316Z,1013.52
2024-05-09T08:43:23.588Z,1013.51
2024-05-09T08:44:23.277Z,1013.50
2024-05-09T08:45:23.299Z,1013.47
2024-05-09T08:46:23.371Z,1013.45
2024-05-09T08:47:23.414Z,1013.45
2024-05-09T08:48:23.525Z,1013.45
2024-05-09T08:49:23.425Z,1013.46
2024-05-09T08:50:32.058Z,1013.45
2024-05-09T08:51:23.235Z,1013.46
2024-05-09T08:52:23.251Z,1013.46
2024-05-09T08:53:23.256Z,1013.46
2024-05-09T08:54:23.230Z,1013.47
2024-05-09T08:55:23.196Z,1013.49
2024-05-09T08:56:23.199Z,1013.48
2024-05-09T08:57:23.181Z,1013.48
2024-05-09T08:58:23.207Z,1013.49
2024-05-09T08:59:23.153Z,1013.50
2024-05-09T09:00:33.453Z,1013.50
2024-05-09T09:01:23.279Z,1013.49
2024-05-09T09:02:23.362Z,1013.50
2024-05-09T09:03:23.233Z,1013.47
2024-05-09T09:04:23.252Z,1013.46
2024-05-09T09:05:23.267Z,1013.47
2024-05-09T09:06:23.120Z,1013.49
2024-05-09T09:07:23.208Z,1013.50
2024-05-09T09:08:23.091Z,1013.52
2024-05-09T09:09:23.099Z,1013.52
2024-05-09T09:10:29.720Z,1013.53
2024-05-09T09:11:23.113Z,1013.54
2024-05-09T09:12:23.085Z,1013.56
2024-05-09T09:13:23.079Z,1013.57
2024-05-09T09:14:23.078Z,1013.59
2024-05-09T09:15:23.091Z,1013.60
2024-05-09T09:16:23.298Z,1013.61
2024-05-09T09:17:23.127Z,1013.62
2024-05-09T09:18:23.083Z,1013.63
2024-05-09T09:19:23.417Z,1013.63
2024-05-09T09:20:29.127Z,1013.64
2024-05-09T09:21:22.981Z,1013.64
2024-05-09T09:22:22.989Z,1013.62
2024-05-09T09:23:22.960Z,1013.61
2024-05-09T09:24:22.947Z,1013.61
2024-05-09T09:25:22.944Z,1013.59
2024-05-09T09:26:22.971Z,1013.59
2024-05-09T09:27:22.929Z,1013.58
2024-05-09T09:28:22.981Z,1013.58
2024-05-09T09:29:22.916Z,1013.58
2024-05-09T09:30:34.058Z,1013.58
2024-05-09T09:31:22.951Z,1013.58
2024-05-09T09:32:22.904Z,1013.57
2024-05-09T09:33:23.052Z,1013.57
2024-05-09T09:34:23.067Z,1013.57
2024-05-09T09:35:23.047Z,1013.57
2024-05-09T09:36:22.920Z,1013.57
2024-05-09T09:37:22.951Z,1013.55
2024-05-09T09:38:22.847Z,1013.54
2024-05-09T09:39:22.815Z,1013.52
2024-05-09T09:40:30.985Z,1013.51
2024-05-09T09:41:22.883Z,1013.49
2024-05-09T09:42:22.865Z,1013.47
2024-05-09T09:43:23.237Z,1013.47
2024-05-09T09:44:22.781Z,1013.47
2024-05-09T09:45:22.852Z,1013.46
2024-05-09T09:46:22.856Z,1013.45
2024-05-09T09:47:22.938Z,1013.45
2024-05-09T09:48:23.309Z,1013.44
2024-05-09T09:49:22.827Z,1013.41
2024-05-09T09:50:27.960Z,1013.44
2024-05-09T09:51:22.681Z,1013.44
2024-05-09T09:52:22.768Z,1013.43
2024-05-09T09:53:22.704Z,1013.43
2024-05-09T09:54:22.675Z,1013.43
2024-05-09T09:55:22.809Z,1013.43
2024-05-09T09:56:22.664Z,1013.42
2024-05-09T09:57:22.673Z,1013.43
2024-05-09T09:58:22.817Z,1013.43
2024-05-09T09:59:22.622Z,1013.42
2024-05-09T10:00:27.432Z,1013.42
2024-05-09T10:01:22.714Z,1013.40
2024-05-09T10:02:22.785Z,1013.40
2024-05-09T10:03:22.709Z,1013.39
2024-05-09T10:04:22.658Z,1013.38
2024-05-09T10:05:22.707Z,1013.38
2024-05-09T10:06:22.569Z,1013.35
2024-05-09T10:07:22.592Z,1013.34
2024-05-09T10:08:22.567Z,1013.33
2024-05-09T10:09:22.523Z,1013.32
2024-05-09T10:10:29.949Z,1013.31
2024-05-09T10:11:22.694Z,1013.29
2024-05-09T10:12:22.502Z,1013.29
2024-05-09T10:13:22.640Z,1013.27
2024-05-09T10:14:22.482Z,1013.26
2024-05-09T10:15:22.468Z,1013.28
2024-05-09T10:16:22.560Z,1013.26
2024-05-09T10:17:22.499Z,1013.24
2024-05-09T10:18:22.504Z,1013.24
2024-05-09T10:19:22.642Z,1013.24
2024-05-09T10:20:27.922Z,1013.24
2024-05-09T10:21:22.430Z,1013.24
2024-05-09T10:22:22.472Z,1013.24
2024-05-09T10:23:22.387Z,1013.25
2024-05-09T10:24:22.430Z,1013.26
2024-05-09T10:25:22.653Z,1013.26
2024-05-09T10:26:22.382Z,1013.25
2024-05-09T10:27:22.365Z,1013.25
2024-05-09T10:28:22.405Z,1013.26
2024-05-09T10:29:22.423Z,1013.25
2024-05-09T10:30:29.728Z,1013.25
2024-05-09T10:31:22.375Z,1013.25
2024-05-09T10:32:22.432Z,1013.24
2024-05-09T10:33:22.385Z,1013.24
2024-05-09T10:34:22.553Z,1013.23
2024-05-09T10:35:22.272Z,1013.23
2024-05-09T10:36:22.429Z,1013.19
2024-05-09T10:37:22.403Z,1013.19
2024-05-09T10:38:22.235Z,1013.20
2024-05-09T10:39:22.280Z,1013.15
2024-05-09T10:40:26.629Z,1013.12
2024-05-09T10:41:22.303Z,1013.10
2024-05-09T10:42:22.193Z,1013.09
2024-05-09T10:43:22.360Z,1013.10
2024-05-09T10:44:22.227Z,1013.08
2024-05-09T10:45:22.214Z,1013.06
2024-05-09T10:46:22.217Z,1013.04
2024-05-09T10:47:22.225Z,1013.04
2024-05-09T10:48:22.280Z,1013.02
2024-05-09T10:49:22.201Z,1013.00
2024-05-09T10:50:28.344Z,1013.00
2024-05-09T10:51:22.152Z,1012.98
2024-05-09T10:52:22.180Z,1012.99
2024-05-09T10:53:22.211Z,1012.98
2024-05-09T10:54:22.089Z,1012.96
2024-05-09T10:55:22.344Z,1012.99
2024-05-09T10:56:22.104Z,1013.00
2024-05-09T10:57:22.073Z,1013.01
2024-05-09T10:58:22.098Z,1013.00
2024-05-09T10:59:22.102Z,1013.02
2024-05-09T11:00:27.808Z,1013.04
2024-05-09T11:01:22.159Z,1013.06
2024-05-09T11:02:22.896Z,1013.02
2024-05-09T11:03:22.062Z,1012.98
2024-05-09T11:04:22.093Z,1012.96
2024-05-09T11:05:22.360Z,1012.97
2024-05-09T11:06:22.007Z,1012.97
2024-05-09T11:07:22.134Z,1012.96
2024-05-09T11:08:21.989Z,1012.97
2024-05-09T11:09:21.959Z,1012.98
2024-05-09T11:10:27.769Z,1012.98
2024-05-09T11:11:22.016Z,1012.99
2024-05-09T11:12:24.357Z,1012.99
2024-05-09T11:13:22.067Z,1013.01
2024-05-09T11:14:21.927Z,1012.97
2024-05-09T11:15:21.920Z,1012.91
2024-05-09T11:16:22.251Z,1012.89
2024-05-09T11:17:21.976Z,1012.91
2024-05-09T11:18:24.992Z,1012.90
2024-05-09T11:19:22.126Z,1012.89
2024-05-09T11:20:29.107Z,1012.90
2024-05-09T11:21:21.879Z,1012.91
2024-05-09T11:22:22.023Z,1012.88
2024-05-09T11:23:21.867Z,1012.87
2024-05-09T11:24:21.849Z,1012.86
2024-05-09T11:25:21.832Z,1012.86
2024-05-09T11:26:21.841Z,1012.84
2024-05-09T11:27:21.811Z,1012.84
2024-05-09T11:28:21.886Z,1012.84
2024-05-09T11:29:21.825Z,1012.79
2024-05-09T11:30:29.589Z,1012.77
2024-05-09T11:31:22.132Z,1012.74
2024-05-09T11:32:21.791Z,1012.74
2024-05-09T11:33:21.795Z,1012.73
2024-05-09T11:34:21.822Z,1012.74
2024-05-09T11:35:21.744Z,1012.74
2024-05-09T11:36:21.745Z,1012.71
2024-05-09T11:37:21.815Z,1012.71
2024-05-09T11:38:21.692Z,1012.71
2024-05-09T11:39:21.709Z,1012.69
2024-05-09T11:40:25.703Z,1012.66
2024-05-09T11:41:21.690Z,1012.64
2024-05-09T11:42:21.675Z,1012.62
2024-05-09T11:43:21.796Z,1012.61
2024-05-09T11:44:21.646Z,1012.57
2024-05-09T11:45:21.664Z,1012.59
2024-05-09T11:46:21.848Z,1012.57
2024-05-09T11:47:21.766Z,1012.55
2024-05-09T11:48:21.726Z,1012.58
2024-05-09T11:49:25.368Z,1012.60
2024-05-09T11:50:27.314Z,1012.63
2024-05-09T11:51:21.619Z,1012.64
2024-05-09T11:52:21.621Z,1012.63
2024-05-09T11:53:21.598Z,1012.62
2024-05-09T11:54:21.568Z,1012.62
2024-05-09T11:55:23.230Z,1012.62
2024-05-09T11:56:21.592Z,1012.62
2024-05-09T11:57:21.538Z,1012.60
2024-05-09T11:58:21.619Z,1012.59
2024-05-09T11:59:21.529Z,1012.56
2024-05-09T12:00:29.511Z,1012.55
2024-05-09T12:01:23.081Z,1012.54
2024-05-09T12:02:21.844Z,1012.52
2024-05-09T12:03:21.662Z,1012.49
2024-05-09T12:04:21.653Z,1012.52
2024-05-09T12:05:21.583Z,1012.50
2024-05-09T12:06:21.491Z,1012.46
2024-05-09T12:07:21.654Z,1012.45
2024-05-09T12:08:21.506Z,1012.43
2024-05-09T12:09:21.446Z,1012.42
2024-05-09T12:10:26.097Z,1012.41